createdAt,value
2022-11-24T00:02:35.616Z,11.47
2022-11-24T00:07:02.629Z,11.50
2022-11-24T00:11:09.731Z,9.67
2022-11-24T00:15:27.289Z,9.67
2022-11-24T00:19:29.252Z,10.23
2022-11-24T00:23:31.136Z,9.57
2022-11-24T00:27:33.060Z,9.80
2022-11-24T00:31:40.100Z,8.67
2022-11-24T00:35:42.004Z,9.53
2022-11-24T00:39:43.991Z,8.93
2022-11-24T00:43:45.872Z,8.90
2022-11-24T00:47:52.032Z,9.30
2022-11-24T00:51:56.972Z,9.10
2022-11-24T00:56:03.933Z,8.10
2022-11-24T01:00:06.843Z,9.00
2022-11-24T01:04:08.946Z,8.70
2022-11-24T01:08:11.136Z,9.53
2022-11-24T01:12:13.004Z,8.53
2022-11-24T01:16:41.224Z,8.63
2022-11-24T01:20:43.171Z,9.97
2022-11-24T01:24:45.837Z,7.47
2022-11-24T01:28:48.128Z,8.37
2022-11-24T01:32:50.192Z,7.83
2022-11-24T01:36:52.066Z,7.37
2022-11-24T01:41:13.388Z,7.47
2022-11-24T01:45:45.818Z,6.80
2022-11-24T01:49:53.692Z,9.00
2022-11-24T01:54:03.095Z,6.47
2022-11-24T01:58:15.917Z,6.30
2022-11-24T02:02:18.182Z,5.97
2022-11-24T02:06:27.174Z,6.70
2022-11-24T02:10:29.053Z,7.03
2022-11-24T02:14:31.073Z,7.20
2022-11-24T02:18:33.051Z,8.00
2022-11-24T02:22:44.843Z,7.90
2022-11-24T02:26:50.055Z,6.67
2022-11-24T02:30:52.251Z,6.73
2022-11-24T02:35:02.641Z,7.00
2022-11-24T02:39:15.028Z,7.30
2022-11-24T02:43:20.933Z,7.37
2022-11-24T02:47:23.162Z,6.77
2022-11-24T02:51:25.067Z,6.47
2022-11-24T02:55:26.886Z,7.13
2022-11-24T02:59:28.759Z,6.60
2022-11-24T03:03:37.135Z,6.43
2022-11-24T03:07:45.885Z,5.80
2022-11-24T03:11:54.142Z,5.93
2022-11-24T03:16:02.159Z,5.43
2022-11-24T03:20:11.121Z,7.37
2022-11-24T03:24:13.011Z,6.90
2022-11-24T03:28:14.999Z,6.37
2022-11-24T03:32:17.017Z,6.23
2022-11-24T03:36:19.136Z,6.90
2022-11-24T03:40:21.081Z,6.80
2022-11-24T03:44:23.758Z,6.07
2022-11-24T03:48:25.968Z,7.83
2022-11-24T03:52:27.785Z,7.43
2022-11-24T03:56:30.825Z,8.73
2022-11-24T04:00:35.100Z,7.80
2022-11-24T04:04:37.164Z,7.70
2022-11-24T04:08:39.060Z,7.40
2022-11-24T04:12:43.959Z,7.10
2022-11-24T04:16:45.803Z,7.30
2022-11-24T04:20:50.485Z,7.53
2022-11-24T04:24:52.352Z,7.97
2022-11-24T04:28:54.216Z,8.40
2022-11-24T04:32:57.058Z,8.00
2022-11-24T04:36:58.994Z,7.80
2022-11-24T04:41:04.136Z,7.63
2022-11-24T04:45:07.261Z,7.33
2022-11-24T04:49:11.968Z,7.43
2022-11-24T04:53:15.312Z,7.90
2022-11-24T04:57:22.205Z,9.23
2022-11-24T05:01:26.719Z,8.07
2022-11-24T05:05:28.769Z,9.27
2022-11-24T05:09:48.223Z,7.90
2022-11-24T05:13:56.393Z,7.47
2022-11-24T05:17:58.496Z,8.40
2022-11-24T05:22:00.377Z,7.00
2022-11-24T05:26:02.503Z,6.77
2022-11-24T05:30:05.279Z,6.67
2022-11-24T05:34:07.410Z,6.90
2022-11-24T05:38:09.432Z,7.10
2022-11-24T05:42:49.887Z,6.67
2022-11-24T05:46:51.869Z,7.13
2022-11-24T05:50:56.295Z,6.40
2022-11-24T05:54:58.236Z,6.07
2022-11-24T05:59:01.496Z,6.30
2022-11-24T06:03:08.950Z,6.13
2022-11-24T06:07:12.067Z,7.10
2022-11-24T06:11:20.130Z,6.80
2022-11-24T06:15:29.550Z,7.07
2022-11-24T06:20:32.684Z,7.30
2022-11-24T06:24:35.681Z,7.20
2022-11-24T06:28:37.898Z,6.43
2022-11-24T06:32:49.086Z,7.30
2022-11-24T06:36:52.367Z,7.93
2022-11-24T06:41:08.954Z,7.40
2022-11-24T06:45:11.226Z,7.90
2022-11-24T06:49:13.289Z,8.13
2022-11-24T06:53:15.566Z,7.03
2022-11-24T07:37:29.651Z,7.40
2022-11-24T07:41:33.098Z,8.47
2022-11-24T07:45:35.159Z,8.27
2022-11-24T07:49:37.164Z,8.77
2022-11-24T07:53:39.190Z,7.70
2022-11-24T07:57:41.242Z,8.53
2022-11-24T08:01:43.261Z,8.67
2022-11-24T08:06:22.181Z,7.90
2022-11-24T08:10:16.955Z,7.53
2022-11-24T08:14:18.857Z,8.00
2022-11-24T08:19:21.285Z,6.83
2022-11-24T08:24:19.857Z,6.70
2022-11-24T08:28:52.118Z,7.03
2022-11-24T08:55:12.126Z,7.73
2022-11-24T08:59:14.585Z,8.10
2022-11-24T09:03:16.550Z,7.83
2022-11-24T09:12:25.287Z,7.73
2022-11-24T09:37:56.516Z,8.37
2022-11-24T09:42:12.855Z,8.23
2022-11-24T10:55:22.442Z,9.87
2022-11-24T11:01:07.435Z,9.23
2022-11-24T13:47:03.304Z,12.27
2022-11-24T13:58:51.273Z,13.17
2022-11-24T14:03:15.166Z,13.50
2022-11-24T14:08:10.011Z,15.33
2022-11-24T14:12:15.951Z,15.77
2022-11-24T14:16:22.466Z,13.03
2022-11-24T14:20:26.693Z,15.63
2022-11-24T14:24:43.962Z,17.40
2022-11-24T14:29:08.942Z,18.43
2022-11-24T14:33:15.924Z,17.43
2022-11-24T14:37:19.386Z,17.50
2022-11-24T14:41:31.696Z,18.97
2022-11-24T14:46:24.484Z,18.60
2022-11-24T14:51:23.092Z,17.57
2022-11-24T14:55:30.160Z,18.70
2022-11-24T14:59:34.820Z,18.13
2022-11-24T15:03:49.427Z,17.20
2022-11-24T15:08:02.914Z,18.67
2022-11-24T15:12:10.129Z,16.80
2022-11-24T15:16:19.248Z,16.37
2022-11-24T15:20:37.462Z,16.37
2022-11-24T15:24:54.033Z,15.13
2022-11-24T15:28:58.593Z,16.63
2022-11-24T15:33:00.444Z,19.40
2022-11-24T15:37:02.370Z,19.23
2022-11-24T15:41:21.880Z,17.87
2022-11-24T15:45:26.303Z,18.07
2022-11-24T15:49:28.246Z,20.27
2022-11-24T15:53:51.726Z,17.77
2022-11-24T15:57:56.068Z,19.20
2022-11-24T16:03:38.229Z,18.33
2022-11-24T16:07:27.581Z,20.17
2022-11-24T16:11:29.759Z,19.60
2022-11-24T16:15:32.892Z,17.40
2022-11-24T16:19:38.736Z,19.70
2022-11-24T16:23:43.824Z,20.17
2022-11-24T16:27:51.848Z,18.23
2022-11-24T16:32:06.512Z,18.03
2022-11-24T16:36:11.144Z,20.10
2022-11-24T16:40:13.475Z,19.93
2022-11-24T16:44:15.342Z,18.33
2022-11-24T16:48:17.386Z,21.50
2022-11-24T16:52:19.486Z,21.37
2022-11-24T16:56:21.383Z,19.17
2022-11-24T17:00:23.680Z,20.47
2022-11-24T17:04:25.690Z,22.60
2022-11-24T17:08:30.820Z,22.63
2022-11-24T17:12:35.322Z,21.00
2022-11-24T17:16:40.486Z,20.03
2022-11-24T17:20:43.617Z,19.90
2022-11-24T17:24:59.217Z,20.57
2022-11-24T17:29:33.442Z,18.93
2022-11-24T17:33:37.545Z,18.40
2022-11-24T17:37:47.604Z,20.20
2022-11-24T17:47:38.324Z,19.07
2022-11-24T17:51:43.237Z,22.90
2022-11-24T17:56:09.740Z,22.87
2022-11-24T18:06:11.863Z,22.43
2022-11-24T18:11:23.573Z,22.13
2022-11-24T18:20:47.947Z,22.57
2022-11-24T18:29:43.067Z,24.50
2022-11-24T18:33:58.197Z,22.33
2022-11-24T18:38:09.058Z,23.23
2022-11-24T18:42:26.170Z,24.30
2022-11-24T18:46:31.435Z,25.00
2022-11-24T18:55:41.127Z,26.60
2022-11-24T18:59:44.439Z,22.33
2022-11-24T19:04:15.550Z,25.70
2022-11-24T19:13:11.976Z,26.20
2022-11-24T19:17:17.126Z,24.87
2022-11-24T19:21:54.529Z,24.57
2022-11-24T19:26:54.513Z,24.07
2022-11-24T19:31:39.826Z,25.80
2022-11-24T19:36:13.409Z,24.43
2022-11-24T19:41:37.320Z,21.60
2022-11-24T19:46:10.445Z,23.50
2022-11-24T19:50:37.636Z,20.00
2022-11-24T19:54:59.814Z,25.00
2022-11-24T19:59:06.446Z,27.70
2022-11-24T20:07:31.966Z,26.70
2022-11-24T20:11:53.865Z,25.97
2022-11-24T20:26:41.399Z,22.03
2022-11-24T20:30:49.856Z,22.13
2022-11-24T20:40:05.469Z,27.50
2022-11-24T20:50:33.571Z,25.20
2022-11-24T20:54:34.318Z,22.80
2022-11-24T20:58:50.179Z,23.30
2022-11-24T21:02:59.982Z,27.50
2022-11-24T21:07:17.889Z,25.67
2022-11-24T21:26:58.879Z,25.63
2022-11-24T21:45:52.452Z,18.90
2022-11-24T21:50:07.799Z,18.47
2022-11-24T21:54:13.402Z,18.13
2022-11-24T21:58:35.472Z,19.00
2022-11-24T22:03:20.044Z,18.97
2022-11-24T22:07:27.450Z,17.27
2022-11-24T22:11:31.937Z,16.60
2022-11-24T22:15:34.357Z,16.40
2022-11-24T22:19:36.284Z,16.70
2022-11-24T22:23:38.446Z,15.70
2022-11-24T22:27:41.778Z,15.53
2022-11-24T22:31:43.912Z,15.83
2022-11-24T22:35:59.352Z,13.77
2022-11-24T22:40:01.315Z,15.07
2022-11-24T22:44:05.784Z,12.70
2022-11-24T22:48:07.706Z,10.47
2022-11-24T22:52:09.637Z,13.77
2022-11-24T22:56:15.137Z,13.00
2022-11-24T23:00:22.820Z,12.00
2022-11-24T23:04:27.253Z,9.23
2022-11-24T23:08:33.445Z,10.23
2022-11-24T23:12:37.366Z,6.67
2022-11-24T23:16:42.113Z,5.87
2022-11-24T23:20:44.611Z,5.00
2022-11-24T23:24:48.887Z,6.17
2022-11-24T23:28:51.121Z,4.67
2022-11-24T23:32:54.209Z,4.40
2022-11-24T23:36:59.850Z,4.57
2022-11-24T23:41:36.731Z,4.10
2022-11-24T23:45:38.715Z,4.00
2022-11-24T23:49:43.137Z,4.30
2022-11-24T23:53:48.242Z,3.93
2022-11-24T23:57:50.148Z,4.07
